Time;durP1;ratioP1;P1;durP2;ratioP2;P2;SDS_P1;SDS_P2;PMS_P1;PMS_P2;Temp;Humidity;BMP_temperature;BMP_pressure;BME280_temperature;BME280_humidity;BME280_pressure;Samples;Min_cycle;Max_cycle;Signal;HPM_P1;HPM_P2
2022/10/17 00:00:25;;;;;;;;;;;10.70;99.90;;;;;;4842718;29;20041;-75
2022/10/17 00:02:54;;;;;;;8.65;5.45;;;10.70;99.90;;;;;;4842498;29;19975;-75
2022/10/17 00:05:20;;;;;;;16.85;5.75;;;10.70;99.90;;;;;;4859489;29;20146;-75
2022/10/17 00:07:46;;;;;;;;;;;10.70;99.90;;;;;;4859683;29;20124;-76
2022/10/17 00:10:11;;;;;;;11.70;6.57;;;10.70;99.90;;;;;;4859914;29;19915;-75
2022/10/17 00:12:37;;;;;;;;;;;10.60;99.90;;;;;;4858994;29;20190;-74
2022/10/17 00:15:06;;;;;;;11.15;5.93;;;10.60;99.90;;;;;;4841819;29;19912;-74
2022/10/17 00:17:32;;;;;;;8.93;5.80;;;10.60;99.90;;;;;;4858070;29;20037;-75
2022/10/17 00:19:58;;;;;;;;;;;10.60;99.90;;;;;;4841901;29;20040;-75
2022/10/17 00:22:23;;;;;;;10.27;5.72;;;10.50;99.90;;;;;;4841385;29;19919;-75
2022/10/17 00:24:49;;;;;;;;;;;10.40;99.90;;;;;;4858750;29;20459;-75
2022/10/17 00:27:14;;;;;;;10.82;5.90;;;10.40;99.90;;;;;;4858316;29;19916;-75
2022/10/17 00:29:40;;;;;;;;;;;10.40;99.90;;;;;;4858770;29;20041;-75
2022/10/17 00:32:05;;;;;;;16.33;6.13;;;10.40;99.90;;;;;;4858887;29;20337;-75
2022/10/17 00:34:31;;;;;;;;;;;10.40;99.90;;;;;;4845075;29;20033;-75
2022/10/17 00:36:57;;;;;;;13.48;5.38;;;10.40;99.90;;;;;;4860998;29;19915;-75
2022/10/17 00:39:22;;;;;;;;;;;10.40;99.90;;;;;;4845061;29;20033;-75
2022/10/17 00:41:48;;;;;;;8.77;5.63;;;10.40;99.90;;;;;;4844523;29;19916;-74
2022/10/17 00:44:29;;;;;;;;;;;10.30;99.90;;;;;;4844986;29;20030;-74
2022/10/17 00:47:01;;;;;;;8.70;5.03;;;10.40;99.90;;;;;;4861217;29;19912;-75
2022/10/17 00:49:29;;;;;;;15.60;5.47;;;10.40;99.90;;;;;;4844269;29;20049;-75
2022/10/17 00:52:01;;;;;;;10.30;5.35;;;10.40;99.90;;;;;;4861315;29;20026;-75
2022/10/17 00:54:33;;;;;;;9.35;5.10;;;10.40;99.90;;;;;;4844513;29;20037;-75
2022/10/17 00:57:00;;;;;;;14.13;5.22;;;10.30;99.90;;;;;;4845084;29;20038;-75
2022/10/17 00:59:27;;;;;;;10.40;4.30;;;10.30;99.90;;;;;;4860958;29;20025;-74
2022/10/17 01:02:00;;;;;;;7.80;4.10;;;10.40;99.90;;;;;;4844486;29;20117;-75
2022/10/17 01:04:26;;;;;;;8.77;4.35;;;10.70;99.90;;;;;;4861296;29;20045;-75
2022/10/17 01:06:52;;;;;;;;;;;10.60;99.90;;;;;;4860937;29;20071;-75
2022/10/17 01:09:17;;;;;;;5.85;3.90;;;10.60;99.90;;;;;;4844178;29;19912;-75
2022/10/17 01:11:51;;;;;;;;;;;10.60;99.90;;;;;;4861631;29;20029;-75
2022/10/17 01:14:50;;;;;;;9.98;4.28;;;10.60;99.90;;;;;;4844150;29;19980;-75
2022/10/17 01:17:39;;;;;;;9.00;3.95;;;10.70;99.90;;;;;;4850153;29;20102;-74
2022/10/17 01:20:36;;;;;;;9.02;4.30;;;10.70;99.90;;;;;;4860634;29;20034;-75
2022/10/17 01:23:10;;;;;;;6.03;3.88;;;10.60;99.90;;;;;;4860819;29;20067;-75
2022/10/17 01:25:52;;;;;;;8.45;4.40;;;10.60;99.90;;;;;;4860743;29;20090;-75
2022/10/17 01:28:55;;;;;;;15.90;4.68;;;10.60;99.90;;;;;;4860607;29;20033;-74
2022/10/17 01:31:41;;;;;;;7.80;4.78;;;10.60;99.90;;;;;;4844148;29;20040;-75
2022/10/17 01:34:26;;;;;;;6.40;4.32;;;10.60;99.90;;;;;;4859767;29;20038;-75
2022/10/17 01:37:05;;;;;;;14.52;4.80;;;10.50;99.90;;;;;;4860547;29;20092;-75
2022/10/17 01:39:40;;;;;;;12.05;4.70;;;10.50;99.90;;;;;;4844466;29;20029;-75
2022/10/17 01:42:23;;;;;;;11.05;4.85;;;10.40;99.90;;;;;;4844193;29;20045;-75
2022/10/17 01:45:21;;;;;;;7.72;4.53;;;10.40;99.90;;;;;;4859555;29;20026;-75
2022/10/17 01:47:51;;;;;;;10.20;4.95;;;10.40;99.90;;;;;;4860420;29;20049;-75
2022/10/17 01:50:23;;;;;;;10.45;4.35;;;10.30;99.90;;;;;;4843509;29;20034;-75
2022/10/17 01:52:55;;;;;;;11.27;5.35;;;10.30;99.90;;;;;;4860835;29;20097;-74
2022/10/17 01:55:40;;;;;;;11.43;5.75;;;10.30;99.90;;;;;;4843638;29;20030;-75
2022/10/17 01:58:15;;;;;;;11.45;5.20;;;10.30;99.90;;;;;;4843367;29;20038;-75
2022/10/17 02:00:43;;;;;;;13.38;5.90;;;10.30;99.90;;;;;;4859972;29;20049;-75
2022/10/17 02:03:14;;;;;;;9.57;5.32;;;10.40;99.90;;;;;;4860290;29;20788;-76
2022/10/17 02:05:42;;;;;;;12.57;5.25;;;10.40;99.90;;;;;;4843653;29;20048;-74
2022/10/17 02:08:08;;;;;;;9.73;5.10;;;10.30;99.90;;;;;;4843793;29;20034;-75
2022/10/17 02:10:52;;;;;;;13.68;5.82;;;10.20;99.90;;;;;;4860113;29;20033;-75
2022/10/17 02:13:57;;;;;;;9.40;5.60;;;10.30;99.90;;;;;;4859775;29;20112;-75
2022/10/17 02:16:28;;;;;;;8.50;5.32;;;10.20;99.90;;;;;;4843074;29;20090;-75
2022/10/17 02:19:21;;;;;;;10.25;5.13;;;10.20;99.90;;;;;;4859996;29;20021;-75
2022/10/17 02:22:08;;;;;;;7.65;4.78;;;10.20;99.90;;;;;;4859471;29;20045;-75
2022/10/17 02:25:15;;;;;;;7.97;4.97;;;10.10;99.90;;;;;;4859853;29;20033;-75
2022/10/17 02:27:51;;;;;;;9.30;5.23;;;10.10;99.90;;;;;;4860444;29;20034;-74
2022/10/17 02:30:32;;;;;;;14.07;6.93;;;10.10;99.90;;;;;;4844371;29;20037;-75
2022/10/17 02:33:08;;;;;;;14.63;7.13;;;10.10;99.90;;;;;;4860648;29;20036;-75
2022/10/17 02:35:37;;;;;;;19.90;6.57;;;10.10;99.90;;;;;;4859066;29;20108;-75
2022/10/17 02:38:06;;;;;;;15.45;5.40;;;10.00;99.90;;;;;;4842654;29;20033;-75
2022/10/17 02:40:33;;;;;;;10.00;5.13;;;10.10;99.90;;;;;;4858967;29;20052;-74
2022/10/17 02:43:02;;;;;;;13.25;5.53;;;10.10;99.90;;;;;;4842422;29;20068;-75
2022/10/17 02:45:34;;;;;;;10.68;4.70;;;10.10;99.90;;;;;;4842349;29;20033;-75
2022/10/17 02:48:15;;;;;;;8.68;4.75;;;10.10;99.90;;;;;;4858931;29;20053;-75
2022/10/17 02:51:21;;;;;;;7.85;4.78;;;10.10;99.90;;;;;;4858826;29;20041;-75
2022/10/17 02:53:56;;;;;;;12.25;5.07;;;10.10;99.90;;;;;;4859150;29;20065;-74
2022/10/17 02:56:23;;;;;;;8.68;4.38;;;10.10;99.90;;;;;;4858653;29;20056;-75
2022/10/17 02:58:56;;;;;;;10.05;5.10;;;10.00;99.90;;;;;;4858896;29;20053;-75
2022/10/17 03:01:22;;;;;;;11.38;5.80;;;10.00;99.90;;;;;;4858842;29;20045;-75
2022/10/17 03:03:47;;;;;;;;;;;9.90;99.90;;;;;;4843059;29;20034;-75
2022/10/17 03:06:13;;;;;;;9.73;5.10;;;9.90;99.90;;;;;;4841906;29;20061;-75
2022/10/17 03:08:38;;;;;;;;;;;9.90;99.90;;;;;;4859056;29;20085;-75
2022/10/17 03:11:04;;;;;;;10.75;5.55;;;9.80;99.90;;;;;;4841881;29;19960;-75
2022/10/17 03:13:30;;;;;;;;;;;9.80;99.90;;;;;;4858963;29;20089;-74
2022/10/17 03:15:56;;;;;;;10.85;5.18;;;9.80;99.90;;;;;;4842121;29;19971;-75
2022/10/17 03:18:21;;;;;;;;;;;9.70;99.90;;;;;;4858234;29;20022;-75
2022/10/17 03:20:47;;;;;;;9.00;4.13;;;9.70;99.90;;;;;;4842113;29;19927;-75
2022/10/17 03:23:12;;;;;;;;;;;9.70;99.90;;;;;;4859125;29;20109;-74
2022/10/17 03:25:38;;;;;;;8.10;4.80;;;9.70;99.90;;;;;;4841600;29;19912;-75
2022/10/17 03:28:04;;;;;;;;;;;9.60;99.90;;;;;;4859315;29;20057;-75
2022/10/17 03:30:30;;;;;;;8.93;4.80;;;9.70;99.90;;;;;;4841968;29;19967;-75
2022/10/17 03:32:59;;;;;;;7.07;4.35;;;9.70;99.90;;;;;;4842019;29;20094;-74
2022/10/17 03:35:25;;;;;;;10.85;5.50;;;9.70;99.90;;;;;;4841736;29;20025;-75
2022/10/17 03:37:51;;;;;;;12.55;7.25;;;9.60;99.90;;;;;;4857766;29;20096;-75
2022/10/17 03:40:17;;;;;;;;;;;9.60;99.90;;;;;;4842292;29;20150;-74
2022/10/17 03:42:43;;;;;;;8.48;5.35;;;9.60;99.90;;;;;;4858704;29;19927;-76
2022/10/17 03:45:08;;;;;;;;;;;9.60;99.90;;;;;;4842224;29;20108;-75
2022/10/17 03:47:34;;;;;;;7.63;4.88;;;9.60;99.90;;;;;;4858055;29;19920;-75
2022/10/17 03:50:00;;;;;;;;;;;9.60;99.90;;;;;;4859213;29;20042;-74
2022/10/17 03:52:25;;;;;;;10.95;5.05;;;9.60;99.90;;;;;;4858425;29;19919;-76
2022/10/17 03:54:51;;;;;;;;;;;9.60;99.90;;;;;;4842459;29;20037;-75
2022/10/17 03:57:18;;;;;;;13.27;5.00;;;9.60;99.90;;;;;;4841411;29;20293;-75
2022/10/17 03:59:43;;;;;;;8.30;5.20;;;9.60;99.90;;;;;;4858566;29;20101;-76
2022/10/17 04:02:09;;;;;;;;;;;9.60;99.90;;;;;;4859046;29;20452;-75
2022/10/17 04:04:35;;;;;;;11.75;6.05;;;9.70;99.90;;;;;;4858279;29;19912;-75
2022/10/17 04:07:00;;;;;;;;;;;9.60;99.90;;;;;;4841289;29;20069;-75
2022/10/17 04:09:26;;;;;;;11.25;6.25;;;9.50;99.90;;;;;;4862087;29;19931;-75
2022/10/17 04:11:51;;;;;;;;;;;9.60;99.90;;;;;;4844550;29;20491;-75
2022/10/17 04:14:17;;;;;;;9.65;5.50;;;9.60;99.90;;;;;;4861209;29;19912;-75
2022/10/17 04:16:43;;;;;;;;;;;9.60;99.90;;;;;;4862574;29;20034;-75
2022/10/17 04:19:11;;;;;;;10.10;5.72;;;9.60;99.90;;;;;;4845501;29;19928;-75
2022/10/17 04:21:37;;;;;;;10.18;5.80;;;9.70;99.90;;;;;;4862171;29;20101;-75
2022/10/17 04:24:03;;;;;;;;;;;9.60;99.90;;;;;;4862157;29;20105;-75
2022/10/17 04:26:28;;;;;;;8.77;5.68;;;9.60;99.90;;;;;;4861289;29;19915;-75
2022/10/17 04:28:54;;;;;;;;;;;9.60;99.90;;;;;;4862087;29;20044;-75
2022/10/17 04:31:19;;;;;;;8.85;5.50;;;9.60;99.90;;;;;;4862105;29;19912;-74
2022/10/17 04:33:46;;;;;;;;;;;9.60;99.90;;;;;;4862102;29;20506;-75
2022/10/17 04:36:13;;;;;;;8.45;5.28;;;9.60;99.90;;;;;;4843884;29;20002;-75
2022/10/17 04:38:39;;;;;;;8.52;4.72;;;9.60;99.90;;;;;;4844279;29;20567;-74
2022/10/17 04:41:06;;;;;;;;;;;9.60;99.90;;;;;;4844527;29;20033;-74
2022/10/17 04:43:34;;;;;;;9.80;4.70;;;9.70;99.90;;;;;;4844292;29;20285;-75
2022/10/17 04:46:01;;;;;;;11.57;5.93;;;9.70;99.90;;;;;;4844672;29;20086;-75
2022/10/17 04:48:28;;;;;;;9.45;5.45;;;9.60;99.90;;;;;;4860785;29;20109;-75
2022/10/17 04:51:01;;;;;;;12.82;5.03;;;9.60;99.90;;;;;;4844331;29;20402;-75
2022/10/17 04:53:30;;;;;;;15.15;6.07;;;9.60;99.90;;;;;;4845693;29;20113;-76
2022/10/17 04:55:56;;;;;;;13.32;6.30;;;9.50;99.90;;;;;;4861764;29;20108;-75
2022/10/17 04:58:21;;;;;;;;;;;9.50;99.90;;;;;;4861348;29;20132;-75
2022/10/17 05:00:47;;;;;;;10.20;5.28;;;9.50;99.90;;;;;;4860640;29;19920;-75
2022/10/17 05:03:13;;;;;;;;;;;9.40;99.90;;;;;;4844899;29;20144;-74
2022/10/17 05:05:39;;;;;;;15.82;5.55;;;9.50;99.90;;;;;;4860003;29;20003;-74
2022/10/17 05:08:06;;;;;;;12.77;5.80;;;9.40;99.90;;;;;;4844099;29;20057;-74
2022/10/17 05:10:41;;;;;;;18.00;7.55;;;9.50;99.90;;;;;;4843602;29;20033;-73
2022/10/17 05:13:07;;;;;;;15.05;7.88;;;9.50;99.90;;;;;;4860094;29;20403;-74
2022/10/17 05:15:34;;;;;;;14.73;8.38;;;9.50;99.90;;;;;;4859674;29;20033;-74
2022/10/17 05:17:59;;;;;;;12.48;7.90;;;9.60;99.90;;;;;;4859588;29;20104;-75
2022/10/17 05:20:25;;;;;;;;;;;9.50;99.90;;;;;;4860284;29;20149;-74
2022/10/17 05:22:51;;;;;;;15.02;6.50;;;9.60;99.90;;;;;;4834557;29;20358;-74
2022/10/17 05:25:16;;;;;;;;;;;9.50;99.90;;;;;;4857824;29;20034;-74
2022/10/17 05:27:42;;;;;;;19.13;6.60;;;9.60;99.90;;;;;;4832081;29;19923;-74
2022/10/17 05:30:07;;;;;;;;;;;9.60;99.90;;;;;;4855219;29;20049;-73
2022/10/17 05:32:33;;;;;;;10.40;6.07;;;9.60;99.90;;;;;;4854646;29;20458;-75
2022/10/17 05:34:59;;;;;;;;;;;9.60;99.90;;;;;;4841457;29;20038;-75
2022/10/17 05:37:24;;;;;;;11.40;6.78;;;9.60;99.90;;;;;;4842693;29;19933;-75
2022/10/17 05:39:50;;;;;;;16.95;6.45;;;9.60;99.90;;;;;;4840160;29;20044;-76
2022/10/17 05:42:16;;;;;;;;;;;9.60;99.90;;;;;;4843226;29;20098;-75
2022/10/17 05:44:41;;;;;;;12.43;5.90;;;9.70;99.90;;;;;;4841152;29;19941;-75
2022/10/17 05:47:07;;;;;;;;;;;9.70;99.90;;;;;;4841634;29;20055;-75
2022/10/17 05:49:33;;;;;;;22.88;6.40;;;9.90;99.90;;;;;;4843980;29;19916;-76
2022/10/17 05:51:58;;;;;;;;;;;9.90;99.90;;;;;;4861678;29;20017;-74
2022/10/17 05:54:24;;;;;;;15.18;5.68;;;10.00;99.90;;;;;;4844281;29;19915;-75
2022/10/17 05:56:51;;;;;;;;;;;10.10;99.90;;;;;;4845274;29;20157;-75
2022/10/17 05:59:16;;;;;;;10.88;6.22;;;10.10;99.90;;;;;;4861118;29;19908;-75
2022/10/17 06:01:42;;;;;;;;;;;10.20;99.90;;;;;;4859073;29;20431;-75
2022/10/17 06:04:07;;;;;;;14.07;6.60;;;10.30;99.90;;;;;;4843419;29;19998;-76
2022/10/17 06:06:34;;;;;;;;;;;10.50;99.90;;;;;;4862024;29;20049;-76
2022/10/17 06:09:00;;;;;;;11.75;5.32;;;10.60;99.90;;;;;;4844637;29;19923;-76
2022/10/17 06:11:25;;;;;;;;;;;10.90;99.90;;;;;;4843883;29;20034;-75
2022/10/17 06:13:51;;;;;;;9.73;4.63;;;11.20;99.90;;;;;;4860588;29;20002;-76
2022/10/17 06:16:16;;;;;;;;;;;11.60;99.90;;;;;;4845282;29;20123;-76
2022/10/17 06:18:42;;;;;;;12.05;4.43;;;11.90;99.90;;;;;;4860256;29;19920;-76
2022/10/17 06:21:08;;;;;;;;;;;12.40;99.90;;;;;;4861546;29;20078;-75
2022/10/17 06:23:34;;;;;;;10.68;4.45;;;12.80;99.90;;;;;;4844893;29;19919;-76
2022/10/17 06:26:01;;;;;;;;;;;13.30;99.90;;;;;;4844719;29;20049;-76
2022/10/17 06:28:26;;;;;;;11.00;4.23;;;13.80;99.90;;;;;;4862351;29;19908;-76
2022/10/17 06:30:52;;;;;;;;;;;14.50;99.90;;;;;;4860671;29;20030;-76
2022/10/17 06:33:19;;;;;;;7.75;4.05;;;15.30;99.90;;;;;;4842134;29;19912;-77
2022/10/17 06:35:50;;;;;;;8.98;3.95;;;15.90;99.90;;;;;;4859141;29;20029;-77
2022/10/17 06:38:16;;;;;;;17.58;4.00;;;16.60;99.90;;;;;;4840841;29;20498;-77
2022/10/17 06:40:41;;;;;;;7.30;4.00;;;17.30;99.90;;;;;;4840587;29;20041;-80
2022/10/17 06:43:07;;;;;;;14.27;3.85;;;17.90;99.90;;;;;;4840732;29;20044;-81
2022/10/17 06:45:32;;;;;;;7.53;3.45;;;18.50;99.90;;;;;;4857142;29;20037;-81
2022/10/17 06:47:58;;;;;;;18.15;4.63;;;18.80;99.90;;;;;;4856243;29;20124;-81
2022/10/17 06:50:24;;;;;;;7.47;3.88;;;19.00;99.90;;;;;;4856906;29;20109;-83
2022/10/17 06:52:50;;;;;;;11.30;4.05;;;19.20;99.90;;;;;;4839672;29;20076;-79
2022/10/17 06:55:16;;;;;;;10.18;3.10;;;19.40;99.90;;;;;;4840385;29;20029;-78
2022/10/17 06:57:41;;;;;;;9.52;3.63;;;19.40;99.50;;;;;;4856910;29;20037;-79
2022/10/17 07:00:08;;;;;;;7.35;3.30;;;19.40;99.00;;;;;;4856612;29;20038;-76
2022/10/17 07:02:33;;;;;;;6.40;3.05;;;19.30;99.00;;;;;;4839799;29;20069;-76
2022/10/17 07:04:59;;;;;;;11.38;3.13;;;19.20;99.20;;;;;;4840998;29;20029;-76
2022/10/17 07:07:24;;;;;;;7.93;4.05;;;19.00;99.30;;;;;;4840699;29;20080;-77
2022/10/17 07:09:50;;;;;;;8.98;5.18;;;18.90;99.70;;;;;;4839674;29;20515;-76
2022/10/17 07:12:16;;;;;;;7.88;5.20;;;18.70;99.90;;;;;;4856897;29;20041;-77
2022/10/17 07:14:41;;;;;;;8.77;5.43;;;18.50;99.90;;;;;;4842979;29;20032;-76
2022/10/17 07:17:07;;;;;;;8.98;5.40;;;18.20;99.90;;;;;;4844718;29;20495;-77
2022/10/17 07:19:33;;;;;;;12.93;5.93;;;18.10;99.90;;;;;;4844117;29;20029;-75
2022/10/17 07:21:58;;;;;;;11.27;5.80;;;18.10;99.90;;;;;;4842327;29;20060;-76
2022/10/17 07:24:24;;;;;;;9.98;5.47;;;18.10;99.90;;;;;;4842563;29;20026;-76
2022/10/17 07:26:50;;;;;;;14.68;5.25;;;18.10;99.90;;;;;;4857863;29;20038;-76
2022/10/17 07:29:15;;;;;;;8.82;5.40;;;18.10;99.90;;;;;;4842164;29;20376;-75
2022/10/17 07:31:41;;;;;;;12.43;5.53;;;18.00;99.90;;;;;;4856651;29;20871;-76
2022/10/17 07:34:07;;;;;;;16.75;6.20;;;17.90;99.90;;;;;;4857828;29;20125;-75
2022/10/17 07:36:32;;;;;;;12.88;6.25;;;17.90;99.90;;;;;;4857751;29;20038;-75
2022/10/17 07:38:58;;;;;;;9.45;5.35;;;17.90;99.90;;;;;;4840960;29;20149;-75
2022/10/17 07:41:23;;;;;;;16.85;5.68;;;17.80;99.90;;;;;;4857832;29;20110;-76
2022/10/17 07:43:49;;;;;;;12.27;6.68;;;17.80;99.90;;;;;;4844470;29;20025;-76
2022/10/17 07:46:15;;;;;;;15.30;6.70;;;17.80;99.90;;;;;;4861961;29;20547;-76
2022/10/17 07:48:40;;;;;;;15.55;6.75;;;17.80;99.90;;;;;;4864655;29;20050;-77
2022/10/17 07:51:08;;;;;;;10.60;6.00;;;17.90;99.90;;;;;;4863118;29;20037;-77
2022/10/17 07:53:36;;;;;;;11.43;7.18;;;17.80;99.90;;;;;;4862984;29;20545;-77
2022/10/17 07:56:10;;;;;;;15.45;6.90;;;17.90;99.90;;;;;;4846653;29;20041;-77
2022/10/17 07:58:36;;;;;;;10.68;5.50;;;18.10;99.90;;;;;;4847892;29;20030;-76
2022/10/17 08:01:09;;;;;;;9.05;4.63;;;18.10;99.90;;;;;;4862834;29;20120;-77
2022/10/17 08:03:35;;;;;;;14.07;4.97;;;18.30;99.90;;;;;;4844847;29;20033;-78
2022/10/17 08:06:02;;;;;;;8.18;4.28;;;18.40;99.90;;;;;;4843868;29;20503;-77
2022/10/17 08:08:28;;;;;;;11.07;3.50;;;18.60;99.90;;;;;;4859696;29;20049;-77
2022/10/17 08:10:55;;;;;;;6.32;3.53;;;18.80;99.70;;;;;;4859620;29;20141;-82
2022/10/17 08:13:21;;;;;;;5.90;3.40;;;19.10;98.90;;;;;;4859813;29;20120;-83
2022/10/17 08:15:48;;;;;;;9.07;4.35;;;19.40;97.90;;;;;;4859774;29;20355;-83
2022/10/17 08:18:17;;;;;;;15.68;4.88;;;20.00;97.30;;;;;;4842949;29;20025;-85
2022/10/17 08:20:43;;;;;;;12.77;4.55;;;20.70;95.90;;;;;;4859659;29;20034;-83
2022/10/17 08:23:09;;;;;;;8.02;4.10;;;21.50;95.00;;;;;;4842844;29;20034;-80
2022/10/17 08:25:38;;;;;;;11.98;4.13;;;22.30;93.50;;;;;;4842716;29;20040;-81
2022/10/17 08:28:04;;;;;;;14.48;5.05;;;23.20;91.70;;;;;;4858973;29;20029;-81
2022/10/17 08:30:29;;;;;;;7.97;4.50;;;23.70;89.40;;;;;;4857497;29;20141;-80
2022/10/17 08:32:55;;;;;;;12.98;4.20;;;24.30;83.20;;;;;;4839505;29;20040;-79
2022/10/17 08:35:21;;;;;;;18.58;5.82;;;24.70;78.00;;;;;;4824238;29;20073;-79
2022/10/17 08:37:47;;;;;;;10.52;4.40;;;25.10;75.20;;;;;;4840562;29;20121;-79
2022/10/17 08:40:25;;;;;;;8.80;4.45;;;25.40;71.60;;;;;;4839331;29;20080;-74
2022/10/17 08:43:05;;;;;;;10.40;5.25;;;25.70;68.30;;;;;;4840486;29;20052;-79
2022/10/17 08:46:04;;;;;;;10.52;4.50;;;26.00;66.10;;;;;;4850732;29;20128;-77
2022/10/17 08:48:39;;;;;;;20.45;5.10;;;26.40;63.60;;;;;;4827168;29;20062;-78
2022/10/17 08:51:21;;;;;;;10.05;4.20;;;26.60;63.50;;;;;;4858894;29;20081;-78
2022/10/17 08:54:08;;;;;;;8.82;4.45;;;26.80;61.40;;;;;;4858384;29;20042;-76
2022/10/17 08:56:42;;;;;;;12.02;4.25;;;27.00;59.60;;;;;;4842529;29;20483;-75
2022/10/17 08:59:18;;;;;;;9.27;4.43;;;27.30;59.00;;;;;;4859008;29;20025;-75
2022/10/17 09:02:09;;;;;;;16.17;4.70;;;27.30;57.30;;;;;;4842128;29;20046;-73
2022/10/17 09:04:49;;;;;;;11.10;3.60;;;27.40;55.50;;;;;;4858587;29;20064;-78
2022/10/17 09:07:26;;;;;;;6.97;3.88;;;27.50;55.60;;;;;;4840520;29;20056;-76
2022/10/17 09:09:58;;;;;;;8.10;3.80;;;27.60;54.40;;;;;;4833381;29;20499;-75
2022/10/17 09:12:32;;;;;;;7.88;3.45;;;27.60;53.40;;;;;;4840036;29;20562;-73
2022/10/17 09:15:01;;;;;;;14.10;4.15;;;27.50;51.80;;;;;;4823607;29;20449;-75
2022/10/17 09:17:54;;;;;;;11.48;3.85;;;27.60;53.70;;;;;;4840234;29;20071;-75
2022/10/17 09:20:25;;;;;;;7.20;3.97;;;27.80;52.00;;;;;;4823301;29;20034;-72
2022/10/17 09:23:04;;;;;;;7.50;3.50;;;27.80;51.60;;;;;;4823536;29;20062;-74
2022/10/17 09:25:45;;;;;;;6.78;3.85;;;28.00;50.60;;;;;;4839808;29;20069;-74
2022/10/17 09:28:34;;;;;;;7.65;3.33;;;28.20;51.00;;;;;;4840010;29;20094;-75
2022/10/17 09:31:09;;;;;;;8.05;3.88;;;28.40;49.40;;;;;;4839681;29;20194;-73
2022/10/17 09:33:43;;;;;;;8.35;3.63;;;28.50;48.90;;;;;;4839534;29;20038;-74
2022/10/17 09:36:21;;;;;;;5.57;3.35;;;28.10;49.00;;;;;;4823127;29;20407;-74
2022/10/17 09:39:03;;;;;;;5.72;3.08;;;28.20;48.50;;;;;;4839479;29;20040;-75
2022/10/17 09:41:42;;;;;;;11.00;3.95;;;28.30;47.60;;;;;;4822781;29;20415;-75
2022/10/17 09:44:17;;;;;;;5.88;3.00;;;28.20;47.70;;;;;;4838343;29;20045;-77
2022/10/17 09:47:09;;;;;;;52.97;7.60;;;28.10;47.90;;;;;;4823055;29;20034;-77
2022/10/17 09:49:38;;;;;;;9.45;3.53;;;28.20;49.00;;;;;;4822363;29;20053;-75
2022/10/17 09:52:18;;;;;;;8.80;3.30;;;28.30;48.40;;;;;;4822895;29;20106;-74
2022/10/17 09:54:51;;;;;;;8.88;3.17;;;28.30;46.90;;;;;;4822542;29;20029;-74
2022/10/17 09:57:19;;;;;;;10.73;3.65;;;27.80;46.80;;;;;;4839056;29;20037;-75
2022/10/17 09:59:46;;;;;;;6.97;3.85;;;27.00;47.70;;;;;;4822658;29;20026;-75
2022/10/17 10:02:12;;;;;;;8.55;3.95;;;26.10;49.50;;;;;;4839226;29;20048;-77
2022/10/17 10:04:59;;;;;;;13.05;5.10;;;25.30;51.20;;;;;;4821877;29;20046;-80
2022/10/17 10:07:27;;;;;;;8.98;3.30;;;24.70;50.40;;;;;;4822600;29;20504;-80
2022/10/17 10:09:54;;;;;;;10.90;3.88;;;24.20;51.70;;;;;;4839082;29;20038;-82
2022/10/17 10:12:26;;;;;;;5.43;3.17;;;23.60;52.70;;;;;;4822899;29;20034;-80
2022/10/17 10:14:51;;;;;;;9.88;3.53;;;23.20;54.00;;;;;;4822586;29;20447;-82
2022/10/17 10:17:34;;;;;;;7.03;2.97;;;22.90;54.50;;;;;;4822490;29;20488;-75
2022/10/17 10:20:00;;;;;;;7.53;2.88;;;22.60;55.00;;;;;;4838051;29;20056;-76
2022/10/17 10:22:26;;;;;;;13.48;3.30;;;22.40;55.10;;;;;;4822543;29;20045;-79
2022/10/17 10:25:09;;;;;;;12.43;3.33;;;22.10;55.60;;;;;;4838801;29;20045;-75
2022/10/17 10:27:38;;;;;;;8.18;3.60;;;22.00;57.00;;;;;;4838891;29;20114;-76
2022/10/17 10:30:04;;;;;;;5.57;3.03;;;21.70;57.20;;;;;;4822224;29;20034;-74
2022/10/17 10:32:33;;;;;;;8.70;3.05;;;21.50;57.90;;;;;;4838828;29;20069;-74
2022/10/17 10:35:05;;;;;;;5.55;2.80;;;21.30;59.40;;;;;;4838923;29;20101;-76
2022/10/17 10:37:40;;;;;;;5.85;3.40;;;21.30;60.20;;;;;;4823359;29;20030;-76
2022/10/17 10:40:17;;;;;;;7.72;3.00;;;21.20;60.80;;;;;;4823384;29;20034;-76
2022/10/17 10:42:47;;;;;;;6.78;2.92;;;21.20;60.60;;;;;;4839734;29;20022;-74
2022/10/17 10:45:19;;;;;;;9.32;3.78;;;21.10;60.80;;;;;;4823465;29;20077;-76
2022/10/17 10:47:55;;;;;;;7.43;3.40;;;21.10;60.80;;;;;;4823162;29;20054;-75
2022/10/17 10:50:33;;;;;;;5.50;3.03;;;21.00;61.10;;;;;;4839801;29;20045;-75
2022/10/17 10:53:37;;;;;;;9.48;2.97;;;21.00;62.30;;;;;;4823298;29;20051;-75
2022/10/17 10:56:42;;;;;;;8.45;2.78;;;20.90;61.70;;;;;;4823315;29;20025;-76
2022/10/17 10:59:08;;;;;;;13.10;3.22;;;20.90;62.20;;;;;;4839780;29;20030;-77
2022/10/17 11:01:49;;;;;;;8.52;3.05;;;20.90;62.70;;;;;;4823652;29;20056;-76
2022/10/17 11:04:36;;;;;;;8.95;2.70;;;20.80;62.60;;;;;;4838285;29;20041;-76
2022/10/17 11:07:21;;;;;;;8.93;2.83;;;20.80;62.20;;;;;;4839757;29;20036;-76
2022/10/17 11:09:59;;;;;;;9.43;3.00;;;20.80;61.10;;;;;;4839666;29;20085;-76
2022/10/17 11:12:36;;;;;;;6.95;2.72;;;20.70;63.00;;;;;;4823045;29;20415;-76
2022/10/17 11:15:30;;;;;;;13.55;3.50;;;20.70;63.00;;;;;;4839465;29;20101;-75
2022/10/17 11:18:06;;;;;;;5.38;3.20;;;20.70;62.80;;;;;;4840379;29;20058;-74
2022/10/17 11:20:41;;;;;;;9.18;3.05;;;20.70;63.10;;;;;;4839160;29;20034;-75
2022/10/17 11:23:29;;;;;;;16.00;3.00;;;20.70;63.50;;;;;;4839505;29;20469;-75
2022/10/17 11:25:58;;;;;;;6.95;3.05;;;20.70;63.40;;;;;;4823599;29;20038;-75
2022/10/17 11:28:24;;;;;;;8.48;2.58;;;20.80;62.30;;;;;;4823159;29;20735;-75
2022/10/17 11:31:02;;;;;;;9.55;2.58;;;20.70;61.80;;;;;;4839232;29;20492;-75
2022/10/17 11:33:40;;;;;;;5.68;3.28;;;20.70;62.90;;;;;;4823013;29;20507;-74
2022/10/17 11:36:08;;;;;;;7.22;2.88;;;20.70;62.60;;;;;;4839499;29;20063;-75
2022/10/17 11:39:04;;;;;;;8.43;2.72;;;20.60;62.70;;;;;;4838933;29;20034;-75
2022/10/17 11:41:44;;;;;;;6.93;3.05;;;20.60;63.30;;;;;;4839079;29;20037;-75
2022/10/17 11:44:21;;;;;;;9.00;3.13;;;20.60;65.00;;;;;;4823012;29;20128;-75
2022/10/17 11:46:53;;;;;;;7.20;2.72;;;20.60;63.40;;;;;;4839179;29;20487;-74
2022/10/17 11:49:24;;;;;;;10.82;3.08;;;20.60;63.00;;;;;;4839000;29;20061;-75
2022/10/17 11:51:52;;;;;;;11.30;2.88;;;20.60;64.30;;;;;;4822380;29;20491;-75
2022/10/17 11:54:44;;;;;;;13.35;3.75;;;20.60;64.00;;;;;;4822299;29;20059;-75
2022/10/17 11:57:25;;;;;;;5.72;2.50;;;20.50;63.80;;;;;;4839223;29;20030;-75
2022/10/17 12:00:15;;;;;;;10.32;3.30;;;20.60;63.80;;;;;;4822439;29;20412;-76
2022/10/17 12:03:03;;;;;;;9.50;2.28;;;20.70;62.90;;;;;;4839318;29;20113;-75
2022/10/17 12:06:07;;;;;;;8.63;2.88;;;20.60;63.50;;;;;;4839295;29;20030;-76
2022/10/17 12:08:56;;;;;;;8.20;2.60;;;20.60;63.30;;;;;;4823086;29;20091;-74
2022/10/17 12:11:28;;;;;;;7.63;2.28;;;20.70;64.20;;;;;;4838646;29;20038;-74
2022/10/17 12:13:55;;;;;;;10.55;2.72;;;20.70;64.40;;;;;;4838218;29;20102;-75
2022/10/17 12:16:22;;;;;;;11.32;2.80;;;20.80;64.30;;;;;;4837496;29;20034;-75
2022/10/17 12:18:59;;;;;;;7.75;2.72;;;20.80;63.50;;;;;;4838891;29;20041;-75
2022/10/17 12:21:25;;;;;;;6.40;3.50;;;20.90;65.30;;;;;;4822570;29;20046;-74
2022/10/17 12:23:52;;;;;;;5.07;2.63;;;21.00;64.90;;;;;;4822266;29;20034;-75
2022/10/17 12:26:28;;;;;;;4.78;2.67;;;21.10;66.90;;;;;;4838506;29;20071;-75
2022/10/17 12:28:55;;;;;;;6.28;2.85;;;21.10;66.00;;;;;;4841199;29;20092;-75
2022/10/17 12:31:24;;;;;;;5.80;3.03;;;21.20;65.70;;;;;;4842678;29;20116;-75
2022/10/17 12:34:03;;;;;;;10.00;3.38;;;21.20;65.10;;;;;;4825278;29;20098;-75
2022/10/17 12:36:29;;;;;;;8.65;2.90;;;21.40;63.10;;;;;;4842137;29;20029;-75
2022/10/17 12:39:00;;;;;;;10.45;3.63;;;21.40;62.70;;;;;;4842392;29;20041;-75
2022/10/17 12:41:38;;;;;;;5.30;2.65;;;21.40;62.60;;;;;;4825792;29;20038;-74
2022/10/17 12:44:10;;;;;;;6.68;3.08;;;21.30;62.80;;;;;;4825959;29;20554;-75
2022/10/17 12:47:10;;;;;;;7.47;2.75;;;21.30;63.20;;;;;;4825479;29;20082;-74
2022/10/17 12:49:41;;;;;;;6.43;3.28;;;21.30;62.80;;;;;;4825396;29;20049;-76
2022/10/17 12:52:19;;;;;;;13.40;3.03;;;21.30;62.20;;;;;;4825265;29;20460;-74
2022/10/17 12:55:03;;;;;;;4.90;2.70;;;21.30;62.40;;;;;;4841009;29;20073;-76
2022/10/17 12:57:40;;;;;;;22.80;3.53;;;21.40;62.40;;;;;;4842296;29;20022;-75
2022/10/17 13:00:28;;;;;;;6.28;2.97;;;21.50;62.00;;;;;;4842170;29;20029;-74
2022/10/17 13:02:56;;;;;;;5.30;2.65;;;21.50;63.10;;;;;;4825310;29;20085;-76
2022/10/17 13:05:26;;;;;;;3.80;2.47;;;21.50;63.20;;;;;;4825580;29;20393;-76
2022/10/17 13:07:52;;;;;;;10.25;2.90;;;21.40;63.00;;;;;;4841073;29;20036;-76
2022/10/17 13:10:22;;;;;;;6.28;2.63;;;21.50;63.30;;;;;;4841544;29;20102;-76
2022/10/17 13:12:49;;;;;;;11.50;3.33;;;21.50;64.20;;;;;;4842232;29;20750;-75
2022/10/17 13:15:18;;;;;;;10.40;3.53;;;21.50;64.10;;;;;;4841680;29;20065;-75
2022/10/17 13:17:44;;;;;;;9.93;3.15;;;21.40;63.50;;;;;;4841972;29;20040;-75
2022/10/17 13:20:24;;;;;;;6.40;3.20;;;21.40;64.20;;;;;;4842490;29;20038;-76